Latest Weather Observations for Gingin Airport

IDW60801

Issued at 8:33 pm WST Sunday 24 July 2016 (issued every 30 minutes, with the page automatically refreshed every 10 minutes)

About weather observations | Map of weather stations | Latest weather observations for WA | Other Formats
Station Details ID: 009178 Name: GINGIN AERO Lat: -31.46 Lon: 115.86 Height: 73.0 m
Data from the previous 72 hours. | See also: Recent months at Gingin Airport
Date/Time
WST
Temp
°C
App
Temp
°C
Dew
Point
°C
Rel
Hum
%
Delta-T
°C
Wind Press
QNH
hPa
Press
MSL
hPa
Rain since
9am
mm
Dir  Spd
km/h
Gust
km/h
Spd
kts
Gust
kts
24/08:30pm 6.6 3.6 4.3 85 1.0 SE 9 9 5 5 1027.9 1028.0 0.0
24/08:00pm 8.2 5.7 4.6 78 1.6 S 7 9 4 5 1027.5 1027.6 0.0
24/07:30pm 8.9 6.4 4.7 75 1.9 S 7 9 4 5 1027.3 1027.4 0.0
24/07:00pm 9.5 6.3 5.1 74 2.0 S 11 11 6 6 1027.1 1027.2 0.0
24/06:30pm 10.6 6.7 5.2 69 2.5 S 15 17 8 9 1026.8 1026.9 0.0
24/06:00pm 11.4 7.9 5.3 66 2.8 S 13 17 7 9 1026.4 1026.5 0.0
24/05:30pm 12.8 9.5 4.8 58 3.7 S 11 17 6 9 1026.2 1026.3 0.0
24/05:00pm 13.9 10.2 4.5 53 4.3 SSE 13 15 7 8 1026.0 1026.1 0.0
24/04:30pm 14.4 11.1 4.4 51 4.6 SSE 11 17 6 9 1025.8 1025.9 0.0
24/04:00pm 14.8 11.5 4.5 50 4.8 SSE 11 17 6 9 1025.8 1025.9 0.0
24/03:30pm 14.8 11.4 4.2 49 4.9 ESE 11 17 6 9 1025.8 1025.9 0.0
24/03:00pm 14.5 11.1 3.9 49 4.8 ESE 11 20 6 11 1025.8 1025.9 0.0
24/02:30pm 14.5 10.9 4.8 52 4.5 E 13 19 7 10 1026.0 1026.1 0.0
24/02:00pm 14.2 10.8 4.2 51 4.6 ESE 11 19 6 10 1026.1 1026.2 0.0
24/01:30pm 13.7 10.9 3.2 49 4.7 SE 7 19 4 10 1026.4 1026.5 0.0
24/01:00pm 13.2 9.5 2.4 48 4.7 ESE 11 17 6 9 1027.1 1027.2 0.0
24/12:30pm 13.5 9.4 2.4 47 4.9 ESE 13 19 7 10 1027.6 1027.7 0.0
24/12:00pm 12.8 8.1 2.9 51 4.3 E 17 24 9 13 1028.1 1028.2 0.0
24/11:30am 12.5 8.1 2.9 52 4.2 ESE 15 24 8 13 1028.5 1028.6 0.0
24/11:00am 11.8 8.0 3.8 58 3.6 ESE 13 19 7 10 1028.8 1028.9 0.0
24/10:30am 11.0 7.5 3.5 60 3.3 SE 11 15 6 8 1029.1 1029.2 0.0
24/10:00am 10.0 7.0 4.0 66 2.6 ESE 9 13 5 7 1029.1 1029.2 0.0
24/09:30am 8.6 6.0 4.0 73 2.0 SE 7 9 4 5 1029.1 1029.2 0.0
24/09:00am 6.8 5.5 4.1 83 1.2 CALM 0 2 0 1 1028.9 1029.0 0.4
24/08:30am 4.1 2.7 3.4 95 0.3 CALM 0 0 0 0 1028.6 1028.7 0.4
24/08:00am 2.5 -0.3 1.8 95 0.3 SSE 6 6 3 3 1028.3 1028.4 0.4
24/07:30am -0.1 -2.6 -0.9 94 0.3 SSE 2 7 1 4 1028.0 1028.1 0.4
24/07:00am -0.4 -2.6 -1.4 93 0.3 CALM 0 0 0 0 1027.8 1027.9 0.4
24/06:30am 0.2 -1.9 -0.8 93 0.4 CALM 0 0 0 0 1027.4 1027.5 0.4
24/06:00am 0.1 -2.0 -1.0 92 0.4 CALM 0 0 0 0 1027.1 1027.2 0.4
24/05:30am 1.0 -1.7 0.0 93 0.4 SSE 4 7 2 4 1027.0 1027.1 0.4
24/05:00am 1.7 -1.3 0.7 93 0.4 SSE 6 7 3 4 1026.9 1027.0 0.4
24/04:30am 1.9 0.0 0.7 92 0.5 CALM 0 0 0 0 1026.7 1026.8 0.4
24/04:00am 2.4 0.6 1.2 92 0.5 CALM 0 4 0 2 1026.6 1026.7 0.4
24/03:30am 3.4 0.1 2.2 92 0.5 S 9 11 5 6 1026.6 1026.7 0.4
24/03:00am 3.6 -0.1 2.3 91 0.5 S 11 13 6 7 1026.8 1026.9 0.4
24/02:30am 3.8 0.2 2.8 93 0.4 SSE 11 13 6 7 1026.6 1026.7 0.4
24/02:00am 4.2 0.6 3.0 92 0.5 SSE 11 11 6 6 1026.6 1026.7 0.4
24/01:30am 4.8 2.2 3.3 90 0.6 SE 6 7 3 4 1026.6 1026.7 0.4
24/01:00am 5.6 2.6 3.9 89 0.7 SSE 9 11 5 6 1026.4 1026.5 0.4
24/12:30am 6.2 3.6 4.2 87 0.9 SE 7 9 4 5 1026.3 1026.4 0.4
24/12:00am 7.1 4.2 4.4 83 1.2 SE 9 11 5 6 1026.3 1026.4 0.4
 
Date/Time
WST
Temp
°C
App
Temp
°C
Dew
Point
°C
Rel
Hum
%
Delta-T
°C
Wind Press
QNH
hPa
Press
MSL
hPa
Rain since
9am
mm
Dir  Spd
km/h
Gust
km/h
Spd
kts
Gust
kts
23/11:30pm 7.6 3.9 4.6 81 1.3 SSE 13 15 7 8 1026.3 1026.4 0.4
23/11:00pm 8.3 4.6 4.7 78 1.6 SSE 13 17 7 9 1026.1 1026.2 0.4
23/10:30pm 9.0 5.0 4.8 75 1.9 S 15 19 8 10 1025.9 1026.0 0.4
23/10:00pm 9.5 5.9 5.1 74 2.0 S 13 17 7 9 1025.9 1026.0 0.4
23/09:30pm 10.4 6.9 5.4 71 2.3 S 13 15 7 8 1025.6 1025.7 0.4
23/09:00pm 11.1 8.1 6.0 71 2.4 S 11 15 6 8 1025.4 1025.5 0.4
23/08:30pm 10.8 8.9 7.7 81 1.5 SE 7 11 4 6 1025.2 1025.3 0.4
23/08:00pm 11.2 9.3 7.7 79 1.7 S 7 9 4 5 1025.1 1025.2 0.4
23/07:30pm 11.6 9.5 8.3 80 1.6 S 9 11 5 6 1024.8 1024.8 0.4
23/07:00pm 11.6 9.5 8.3 80 1.6 S 9 13 5 7 1024.5 1024.5 0.4
23/06:30pm 11.6 9.6 8.8 83 1.4 SSE 9 11 5 6 1024.2 1024.2 0.4
23/06:00pm 11.8 9.9 9.2 84 1.3 S 9 11 5 6 1023.8 1023.8 0.4
23/05:30pm 12.7 10.1 9.5 81 1.6 S 13 17 7 9 1023.4 1023.4 0.4
23/05:00pm 13.2 10.3 9.6 79 1.8 S 15 20 8 11 1023.1 1023.1 0.4
23/04:30pm 12.8 9.1 10.0 83 1.4 S 20 28 11 15 1023.0 1023.0 0.4
23/04:00pm 12.6 9.1 11.0 90 0.8 SSW 20 32 11 17 1022.8 1022.8 0.4
23/03:30pm 14.2 10.7 11.0 81 1.7 SW 20 32 11 17 1022.4 1022.4 0.4
23/03:00pm 15.9 10.9 8.2 60 3.9 WSW 24 30 13 16 1022.2 1022.2 0.4
23/02:30pm 15.7 12.3 9.1 65 3.4 WSW 17 24 9 13 1022.3 1022.3 0.4
23/02:00pm 15.6 10.6 8.1 61 3.8 WSW 24 30 13 16 1022.3 1022.3 0.4
23/01:30pm 15.4 10.8 8.2 62 3.6 WSW 22 35 12 19 1022.3 1022.3 0.4
23/01:00pm 15.2 10.6 8.0 62 3.6 WSW 22 33 12 18 1023.0 1023.0 0.4
23/12:30pm 15.2 11.4 8.9 66 3.2 SW 19 24 10 13 1023.2 1023.2 0.4
23/12:00pm 13.6 10.6 10.6 82 1.6 SSW 17 22 9 12 1023.9 1023.9 0.4
23/11:30am 14.4 11.2 8.4 67 3.0 SW 15 20 8 11 1024.1 1024.1 0.0
23/11:00am 13.9 11.1 8.5 70 2.7 W 13 20 7 11 1024.2 1024.2 0.0
23/10:30am 12.6 10.1 8.3 75 2.1 NNW 11 15 6 8 1024.2 1024.2 0.0
23/10:00am 12.0 9.0 7.9 76 2.0 NNW 13 17 7 9 1024.4 1024.4 0.0
23/09:30am 10.6 8.0 7.7 82 1.4 NNW 11 17 6 9 1024.3 1024.3 0.0
23/09:00am 10.2 7.0 6.7 79 1.6 NNW 13 19 7 10 1024.2 1024.2 0.0
23/08:30am 9.2 6.3 6.6 84 1.2 N 11 15 6 8 1024.1 1024.1 0.0
23/08:00am 8.3 6.1 6.4 88 0.9 NNW 7 11 4 6 1024.1 1024.1 0.0
23/07:30am 7.5 4.5 5.8 89 0.8 N 11 13 6 7 1023.8 1023.8 0.0
23/07:00am 7.7 5.4 5.8 88 0.9 NE 7 9 4 5 1023.8 1023.8 0.0
23/06:30am 7.6 5.5 5.7 88 0.9 NNE 6 9 3 5 1023.8 1023.8 0.0
23/06:00am 7.6 6.6 5.7 88 0.9 CALM 0 0 0 0 1023.5 1023.5 0.0
23/05:30am 7.5 6.4 5.1 85 1.1 CALM 0 0 0 0 1023.3 1023.3 0.0
23/05:00am 7.3 5.0 4.8 84 1.1 N 6 7 3 4 1023.3 1023.3 0.0
23/04:30am 7.1 4.7 5.4 89 0.8 N 7 9 4 5 1023.3 1023.3 0.0
23/04:00am 6.2 3.7 5.0 92 0.5 NNE 7 9 4 5 1023.5 1023.5 0.0
23/03:30am 5.4 2.6 3.4 87 0.8 NNE 7 9 4 5 1023.5 1023.5 0.0
23/03:00am 6.9 4.3 4.4 84 1.1 NNE 7 11 4 6 1023.6 1023.6 0.0
23/02:30am 7.1 4.6 4.9 86 1.0 NNW 7 9 4 5 1023.7 1023.7 0.0
23/02:00am 7.5 4.7 5.0 84 1.1 W 9 13 5 7 1023.9 1023.9 0.0
23/01:30am 8.1 7.1 5.6 84 1.1 CALM 0 0 0 0 1023.6 1023.6 0.0
23/01:00am 7.8 5.0 5.3 84 1.1 E 9 13 5 7 1023.7 1023.7 0.0
23/12:30am 7.2 5.0 5.2 87 0.9 E 6 7 3 4 1023.8 1023.8 0.0
23/12:00am 6.6 4.3 4.9 89 0.7 E 6 7 3 4 1023.9 1023.9 0.0
 
Date/Time
WST
Temp
°C
App
Temp
°C
Dew
Point
°C
Rel
Hum
%
Delta-T
°C
Wind Press
QNH
hPa
Press
MSL
hPa
Rain since
9am
mm
Dir  Spd
km/h
Gust
km/h
Spd
kts
Gust
kts
22/11:30pm 6.5 3.5 4.3 86 0.9 E 9 11 5 6 1024.0 1024.0 0.0
22/11:00pm 5.7 2.7 4.3 91 0.6 E 9 9 5 5 1024.1 1024.1 0.0
22/10:30pm 4.7 1.6 3.8 94 0.4 E 9 11 5 6 1024.3 1024.3 0.0
22/10:00pm 4.3 2.8 3.0 91 0.5 CALM 0 0 0 0 1024.5 1024.5 0.0
22/09:30pm 4.9 2.4 3.6 91 0.5 E 6 7 3 4 1024.5 1024.5 0.0
22/09:00pm 5.3 3.9 3.3 87 0.8 CALM 0 0 0 0 1024.5 1024.5 0.0
22/08:30pm 5.8 3.3 3.8 87 0.8 ESE 6 7 3 4 1024.6 1024.6 0.0
22/08:00pm 8.0 5.5 4.6 79 1.5 SE 7 9 4 5 1024.4 1024.4 0.0
22/07:30pm 8.9 6.1 5.1 77 1.7 SSW 9 11 5 6 1024.2 1024.2 0.0
22/07:00pm 9.9 7.1 5.3 73 2.1 SSW 9 11 5 6 1023.9 1023.9 0.0
22/06:30pm 10.9 8.2 5.4 69 2.5 SSW 9 13 5 7 1023.7 1023.7 0.0
22/06:00pm 11.6 8.9 5.5 66 2.8 SW 9 11 5 6 1023.3 1023.3 0.0
22/05:30pm 13.1 10.2 4.8 57 3.8 S 9 11 5 6 1023.1 1023.1 0.0
22/05:00pm 13.7 10.4 4.3 53 4.3 SSW 11 17 6 9 1023.0 1023.0 0.0
22/04:30pm 14.0 10.2 4.0 51 4.6 SSE 13 15 7 8 1023.1 1023.1 0.0
22/04:00pm 14.4 11.0 3.8 49 4.8 S 11 19 6 10 1023.0 1023.0 0.0
22/03:30pm 14.5 10.5 2.7 45 5.3 SSE 13 19 7 10 1022.9 1022.9 0.0
22/03:00pm 14.3 10.0 3.5 48 4.9 SSW 15 20 8 11 1022.9 1022.9 0.0
22/02:30pm 14.3 10.0 3.2 47 5.0 SSE 15 20 8 11 1023.0 1023.0 0.0
22/02:00pm 14.6 10.8 3.7 48 5.0 SSE 13 20 7 11 1023.0 1023.0 0.0
22/01:30pm 15.3 12.0 4.7 49 5.0 SSE 11 22 6 12 1023.0 1023.0 0.0
22/01:00pm 14.3 10.6 4.3 51 4.6 SE 13 22 7 12 1023.4 1023.4 0.0
22/12:30pm 14.0 11.0 4.0 51 4.6 SE 9 20 5 11 1023.7 1023.7 0.0
22/12:00pm 13.6 9.9 4.7 55 4.1 SE 13 24 7 13 1024.0 1024.0 0.0
22/11:30am 13.5 9.2 5.2 57 3.9 SE 17 26 9 14 1024.1 1024.1 0.0
22/11:00am 12.9 8.5 4.6 57 3.8 SE 17 24 9 13 1024.2 1024.2 0.0
22/10:30am 12.3 7.9 4.8 60 3.4 ESE 17 20 9 11 1024.3 1024.3 0.0
22/10:00am 11.4 8.3 5.5 67 2.7 ESE 11 15 6 8 1024.3 1024.3 0.0
22/09:30am 11.1 8.6 6.5 73 2.2 E 9 11 5 6 1024.0 1024.0 0.0
22/09:00am 10.2 8.2 6.4 77 1.8 E 6 9 3 5 1023.4 1023.4 7.4
22/08:30am 9.6 8.0 8.0 90 0.8 E 6 9 3 5 1022.8 1022.8 7.4
22/08:00am 9.5 8.0 8.4 93 0.5 E 6 7 3 4 1022.4 1022.4 7.4
22/07:30am 9.1 7.5 7.9 92 0.6 SE 6 9 3 5 1021.9 1021.9 7.4
22/07:00am 9.2 7.1 8.1 93 0.5 SSE 9 11 5 6 1021.4 1021.4 7.4
22/06:30am 9.5 8.0 8.3 92 0.6 SSE 6 9 3 5 1021.0 1021.0 7.4
22/06:00am 9.6 7.4 8.0 90 0.8 S 9 13 5 7 1021.0 1021.0 7.4
22/05:30am 9.8 7.8 8.7 93 0.5 WNW 9 9 5 5 1020.7 1020.7 6.8
22/05:00am 10.0 7.9 8.3 89 0.8 ESE 9 13 5 7 1020.0 1020.0 6.4
22/04:30am 10.6 8.1 8.4 86 1.1 SSE 11 17 6 9 1019.9 1019.9 6.4
22/04:00am 11.9 8.1 7.4 74 2.2 SSW 17 22 9 12 1019.5 1019.5 6.4
22/03:30am 11.2 7.7 5.3 67 2.7 SW 13 19 7 10 1018.9 1018.9 6.4
22/03:00am 12.2 8.1 6.3 67 2.8 SW 17 24 9 13 1018.8 1018.8 6.4
22/02:30am 11.7 9.0 7.4 75 2.1 SW 11 13 6 7 1018.9 1018.9 6.4
22/02:00am 11.6 7.6 6.7 72 2.3 SW 17 22 9 12 1018.7 1018.7 6.4
22/01:30am 11.7 8.7 7.6 76 2.0 SW 13 20 7 11 1018.5 1018.5 6.4
22/01:00am 12.0 8.6 9.0 82 1.5 WSW 17 26 9 14 1018.2 1018.2 6.4
22/12:30am 10.9 7.8 8.8 87 1.0 WSW 15 20 8 11 1017.8 1017.8 6.0
22/12:00am 10.2 7.4 8.6 90 0.8 WSW 13 15 7 8 1017.6 1017.6 5.8
 
Date/Time
WST
Temp
°C
App
Temp
°C
Dew
Point
°C
Rel
Hum
%
Delta-T
°C
Wind Press
QNH
hPa
Press
MSL
hPa
Rain since
9am
mm
Dir  Spd
km/h
Gust
km/h
Spd
kts
Gust
kts
21/11:30pm 10.6 8.4 9.2 91 0.7 W 11 17 6 9 1017.7 1017.7 5.8
21/11:00pm 10.9 8.7 9.3 90 0.8 WSW 11 15 6 8 1017.6 1017.6 5.8
21/10:30pm 11.8 8.0 9.7 87 1.1 W 20 37 11 20 1017.5 1017.5 5.8
21/10:00pm 11.3 7.3 9.0 86 1.1 WSW 20 26 11 14 1017.4 1017.4 5.6
21/09:30pm 10.5 8.4 9.7 95 0.4 NW 11 17 6 9 1016.9 1017.0 5.0
21/09:00pm 10.6 8.1 9.8 95 0.4 NW 13 17 7 9 1016.8 1016.9 5.0

Other Formats:

Comma delimited format used in spreadsheet applications
http://www.bom.gov.au/fwo/IDW60801/IDW60801.95612.axf

JavaScript Object Notation format (JSON) in row-major order
http://www.bom.gov.au/fwo/IDW60801/IDW60801.95612.json